Caldas1b

Aeroportos (Relatórios METAR)


LPPT - Lisboa
Distância da estação: SSE 78km
Actualizado: 20/06/2024 18:30
Parc. nublado
Parc. nublado
 Vento de NNW
Vento: NNW 26 km/h
Temperatura: 21°C
Pt. Orvalho: 12°C
Humidade: 57%
Barómetro: 1020 hPa
Nuvens: Parc. nublado
Visibilidade: 10 km
Nebulosidade: Pouco Nublado 914 m
Parc. nublado 1219 m
2024/06/20 17:30 LPPT 201730Z 34014KT 9999 FEW030 SCT040 21/12 Q1020
LPPR - Porto
Distância da estação: NW 205km
Actualizado: 20/06/2024 18:30
Pouco Nublado
Pouco Nublado
 Vento de NW
Vento: NW 20 km/h
Temperatura: 18°C
Pt. Orvalho: 14°C
Humidade: 78%
Barómetro: 1020 hPa
Nuvens: Pouco Nublado
Visibilidade: 10 km
Nebulosidade: Pouco Nublado 914 m
2024/06/20 17:30 LPPR 201730Z 32011KT 280V340 9999 FEW030 18/14 Q1020
 
LPFR - Faro
Distância da estação: SE 286km
Actualizado: 20/06/2024 18:30
Pouco Nublado
Pouco Nublado
 Vento de W
Vento: W 35 km/h
Temperatura: 21°C
Pt. Orvalho: 13°C
Humidade: 60%
Barómetro: 1018 hPa
Nuvens: Pouco Nublado
Visibilidade: 10 km
Nebulosidade: Pouco Nublado 1372 m
2024/06/20 17:30 LPFR 201730Z 26019KT 9999 FEW045 21/13 Q1018
LPBJ - Beja
Distância da estação: ESE 190km
Actualizado: 20/06/2024 18:00
Muito nublado
Muito nublado
 Vento de WNW
Vento: WNW 15 km/h
Temperatura: 21°C
Pt. Orvalho: 12°C
Humidade: 57%
Barómetro: 1020 hPa
Nuvens: Muito nublado
Visibilidade: 10 km
Nebulosidade: Pouco Nublado 610 m
Muito nublado 1158 m
2024/06/20 17:00 LPBJ 201700Z 29008KT 9999 FEW020 BKN038 21/12 Q1020
 
LPMA - Funchal
Distância da estação: SSW 1025km
Actualizado: 20/06/2024 18:30
Parc. nublado
Parc. nublado
 Vento de N
Vento: N 24 km/h
Temperatura: 22°C
Pt. Orvalho: 14°C
Humidade: 61%
Barómetro: 1023 hPa
Nuvens: Parc. nublado
Visibilidade: 10 km
Nebulosidade: Parc. nublado 549 m
2024/06/20 17:30 LPMA 201730Z 01013KT 340V040 9999 SCT018 22/14 Q1023
LPPD - Ponta Delgada
Distância da estação: W 1450km
Actualizado: 20/06/2024 18:30
Muito nublado
Muito nublado
 Vento de SW
Vento: SW 9 km/h
Temperatura: 21°C
Pt. Orvalho: 12°C
Humidade: 57%
Barómetro: 1028 hPa
Nuvens: Muito nublado
Visibilidade: 10 km
Nebulosidade: Pouco Nublado 762 m
Muito nublado 1372 m
2024/06/20 17:30 LPPD 201730Z 22005KT 170V260 9999 FEW025 BKN045 21/12 Q1028
 
LPCS - Cascais
Distância da estação: SSW 77km
Actualizado: 20/06/2024 18:30
Pouco Nublado
Pouco Nublado
 Vento de NNW
Vento: NNW 28 km/h
Temperatura: 20°C
Pt. Orvalho: 12°C
Humidade: 60%
Barómetro: 1021 hPa
Nuvens: Pouco Nublado
Visibilidade: 10 km
Nebulosidade: Pouco Nublado 823 m
2024/06/20 17:30 LPCS 201730Z 34015KT 310V010 9999 FEW027 20/12 Q1021
LPMR - Monte Real
Distância da estação: N 55km
Actualizado: 20/06/2024 18:00
Muito nublado
Muito nublado
 Vento de NNW
Vento: NNW 28 km/h
Temperatura: 17°C
Pt. Orvalho: 13°C
Humidade: 77%
Barómetro: 1021 hPa
Nuvens: Muito nublado
Visibilidade: 10 km
Nebulosidade: Muito nublado 488 m
2024/06/20 17:00 LPMR 201700Z 34015KT 310V010 9999 BKN016 17/13 Q1021

Phoenix Radar Flight Tracking

Map courtesy of flightradar24.com